sensor_id;sensor_type;location;lat;lon;timestamp;pressure;altitude;pressure_sealevel;temperature;humidity
22031;BME280;11179;52.106;21.024;2022-11-15T00:01:42;100866.88;;;6.05;70.26
22031;BME280;11179;52.106;21.024;2022-11-15T00:04:09;100900.72;;;6.29;70.41
22031;BME280;11179;52.106;21.024;2022-11-15T00:06:35;100878.53;;;6.19;70.33
22031;BME280;11179;52.106;21.024;2022-11-15T00:09:01;100895.31;;;6.22;70.35
22031;BME280;11179;52.106;21.024;2022-11-15T00:11:26;100885.06;;;6.18;70.26
22031;BME280;11179;52.106;21.024;2022-11-15T00:13:55;100885.19;;;6.30;70.33
22031;BME280;11179;52.106;21.024;2022-11-15T00:16:20;100871.63;;;6.23;70.42
22031;BME280;11179;52.106;21.024;2022-11-15T00:18:45;100880.19;;;6.27;70.27
22031;BME280;11179;52.106;21.024;2022-11-15T00:21:12;100869.53;;;6.18;70.55
22031;BME280;11179;52.106;21.024;2022-11-15T00:23:38;100874.34;;;6.16;70.45
22031;BME280;11179;52.106;21.024;2022-11-15T00:26:04;100870.22;;;6.07;70.35
22031;BME280;11179;52.106;21.024;2022-11-15T00:28:30;100857.91;;;5.98;70.93
22031;BME280;11179;52.106;21.024;2022-11-15T00:31:03;100862.88;;;6.01;70.79
22031;BME280;11179;52.106;21.024;2022-11-15T00:33:28;100866.25;;;6.03;70.94
22031;BME280;11179;52.106;21.024;2022-11-15T00:35:59;100861.00;;;6.02;70.62
22031;BME280;11179;52.106;21.024;2022-11-15T00:38:25;100840.91;;;5.96;70.80
22031;BME280;11179;52.106;21.024;2022-11-15T00:40:50;100839.19;;;6.02;70.88
22031;BME280;11179;52.106;21.024;2022-11-15T00:43:15;100822.66;;;5.97;70.96
22031;BME280;11179;52.106;21.024;2022-11-15T00:45:41;100840.84;;;6.09;70.93
22031;BME280;11179;52.106;21.024;2022-11-15T00:48:07;100824.91;;;6.06;70.81
22031;BME280;11179;52.106;21.024;2022-11-15T00:50:32;100836.19;;;6.16;70.96
22031;BME280;11179;52.106;21.024;2022-11-15T00:52:57;100833.47;;;6.16;70.82
22031;BME280;11179;52.106;21.024;2022-11-15T00:55:23;100833.50;;;6.10;70.95
22031;BME280;11179;52.106;21.024;2022-11-15T00:57:48;100837.13;;;5.97;71.05
22031;BME280;11179;52.106;21.024;2022-11-15T01:00:14;100820.81;;;5.91;70.94
22031;BME280;11179;52.106;21.024;2022-11-15T01:02:39;100820.78;;;5.97;71.19
22031;BME280;11179;52.106;21.024;2022-11-15T01:05:05;100823.50;;;5.97;71.25
22031;BME280;11179;52.106;21.024;2022-11-15T01:07:30;100798.59;;;5.87;71.35
22031;BME280;11179;52.106;21.024;2022-11-15T01:09:56;100803.75;;;6.02;71.29
22031;BME280;11179;52.106;21.024;2022-11-15T01:12:21;100786.63;;;5.95;71.41
22031;BME280;11179;52.106;21.024;2022-11-15T01:14:46;100796.81;;;6.06;71.10
22031;BME280;11179;52.106;21.024;2022-11-15T01:17:12;100782.84;;;5.96;71.38
22031;BME280;11179;52.106;21.024;2022-11-15T01:19:37;100788.66;;;5.99;71.29
22031;BME280;11179;52.106;21.024;2022-11-15T01:22:02;100770.91;;;5.90;71.50
22031;BME280;11179;52.106;21.024;2022-11-15T01:24:28;100788.44;;;6.07;71.41
22031;BME280;11179;52.106;21.024;2022-11-15T01:26:53;100762.03;;;6.01;71.43
22031;BME280;11179;52.106;21.024;2022-11-15T01:29:18;100760.16;;;6.02;71.25
22031;BME280;11179;52.106;21.024;2022-11-15T01:31:44;100779.00;;;6.03;71.00
22031;BME280;11179;52.106;21.024;2022-11-15T01:34:09;100760.63;;;5.92;71.52
22031;BME280;11179;52.106;21.024;2022-11-15T01:36:34;100749.94;;;5.91;71.67
22031;BME280;11179;52.106;21.024;2022-11-15T01:39:00;100746.59;;;5.88;71.53
22031;BME280;11179;52.106;21.024;2022-11-15T01:41:29;100765.22;;;5.98;71.61
22031;BME280;11179;52.106;21.024;2022-11-15T01:43:58;100760.63;;;5.92;71.47
22031;BME280;11179;52.106;21.024;2022-11-15T01:46:45;100769.16;;;6.02;71.74
22031;BME280;11179;52.106;21.024;2022-11-15T01:49:19;100760.97;;;6.02;71.40
22031;BME280;11179;52.106;21.024;2022-11-15T01:51:46;100760.34;;;6.00;71.37
22031;BME280;11179;52.106;21.024;2022-11-15T01:54:16;100758.25;;;6.02;71.44
22031;BME280;11179;52.106;21.024;2022-11-15T01:56:58;100751.53;;;6.05;71.65
22031;BME280;11179;52.106;21.024;2022-11-15T01:59:25;100752.38;;;6.05;71.44
22031;BME280;11179;52.106;21.024;2022-11-15T02:01:51;100748.59;;;6.06;71.36
22031;BME280;11179;52.106;21.024;2022-11-15T02:04:20;100744.38;;;6.10;71.29
22031;BME280;11179;52.106;21.024;2022-11-15T02:06:48;100738.94;;;6.10;71.55
22031;BME280;11179;52.106;21.024;2022-11-15T02:09:14;100739.53;;;6.12;71.72
22031;BME280;11179;52.106;21.024;2022-11-15T02:11:40;100719.03;;;6.03;71.50
22031;BME280;11179;52.106;21.024;2022-11-15T02:14:07;100734.06;;;6.12;71.70
22031;BME280;11179;52.106;21.024;2022-11-15T02:30:37;100714.03;;;6.00;71.73
22031;BME280;11179;52.106;21.024;2022-11-15T02:36:06;100715.25;;;6.04;71.86
22031;BME280;11179;52.106;21.024;2022-11-15T02:38:39;100716.31;;;6.03;71.70
22031;BME280;11179;52.106;21.024;2022-11-15T02:41:25;100712.53;;;6.04;71.58
22031;BME280;11179;52.106;21.024;2022-11-15T02:43:56;100706.91;;;5.99;71.93
22031;BME280;11179;52.106;21.024;2022-11-15T02:46:45;100706.25;;;6.04;71.96
22031;BME280;11179;52.106;21.024;2022-11-15T02:49:34;100714.28;;;5.99;71.85
22031;BME280;11179;52.106;21.024;2022-11-15T02:52:02;100706.53;;;5.96;71.89
22031;BME280;11179;52.106;21.024;2022-11-15T02:54:32;100706.94;;;5.93;71.99
22031;BME280;11179;52.106;21.024;2022-11-15T02:57:12;100702.97;;;5.95;72.05
22031;BME280;11179;52.106;21.024;2022-11-15T03:05:13;100694.09;;;6.00;72.11
22031;BME280;11179;52.106;21.024;2022-11-15T03:10:55;100685.56;;;5.96;71.94
22031;BME280;11179;52.106;21.024;2022-11-15T03:16:20;100671.66;;;6.04;72.19
22031;BME280;11179;52.106;21.024;2022-11-15T03:18:59;100673.13;;;6.00;72.19
22031;BME280;11179;52.106;21.024;2022-11-15T03:21:28;100650.16;;;5.90;72.05
22031;BME280;11179;52.106;21.024;2022-11-15T03:23:56;100670.06;;;5.90;72.19
22031;BME280;11179;52.106;21.024;2022-11-15T03:26:24;100654.00;;;5.82;72.17
22031;BME280;11179;52.106;21.024;2022-11-15T03:28:55;100656.50;;;5.83;72.20
22031;BME280;11179;52.106;21.024;2022-11-15T03:31:23;100656.94;;;5.80;72.05
22031;BME280;11179;52.106;21.024;2022-11-15T03:34:20;100650.25;;;5.76;72.12
22031;BME280;11179;52.106;21.024;2022-11-15T03:36:49;100651.69;;;5.79;72.42
22031;BME280;11179;52.106;21.024;2022-11-15T03:39:16;100639.41;;;5.70;72.35
22031;BME280;11179;52.106;21.024;2022-11-15T03:49:46;100630.56;;;5.74;72.10
22031;BME280;11179;52.106;21.024;2022-11-15T03:52:18;100629.72;;;5.74;72.40
22031;BME280;11179;52.106;21.024;2022-11-15T03:54:52;100634.72;;;5.77;72.46
22031;BME280;11179;52.106;21.024;2022-11-15T03:57:18;100628.28;;;5.71;72.18
22031;BME280;11179;52.106;21.024;2022-11-15T03:59:43;100623.09;;;5.63;72.50
22031;BME280;11179;52.106;21.024;2022-11-15T04:02:09;100616.19;;;5.61;72.29
22031;BME280;11179;52.106;21.024;2022-11-15T04:04:34;100610.16;;;5.59;72.55
22031;BME280;11179;52.106;21.024;2022-11-15T04:06:59;100611.38;;;5.63;72.64
22031;BME280;11179;52.106;21.024;2022-11-15T04:09:25;100610.16;;;5.59;72.55
22031;BME280;11179;52.106;21.024;2022-11-15T04:11:50;100604.25;;;5.62;72.78
22031;BME280;11179;52.106;21.024;2022-11-15T04:14:15;100593.56;;;5.60;72.87
22031;BME280;11179;52.106;21.024;2022-11-15T04:16:41;100590.25;;;5.58;72.57
22031;BME280;11179;52.106;21.024;2022-11-15T04:19:06;100591.47;;;5.62;72.90
22031;BME280;11179;52.106;21.024;2022-11-15T04:21:50;100594.16;;;5.69;72.75
22031;BME280;11179;52.106;21.024;2022-11-15T04:24:34;100596.16;;;5.80;72.77
22031;BME280;11179;52.106;21.024;2022-11-15T04:27:00;100595.72;;;5.83;72.75
22031;BME280;11179;52.106;21.024;2022-11-15T04:29:25;100582.75;;;5.78;72.58
22031;BME280;11179;52.106;21.024;2022-11-15T04:32:03;100589.22;;;5.84;72.47
22031;BME280;11179;52.106;21.024;2022-11-15T04:34:29;100585.47;;;5.78;72.37
22031;BME280;11179;52.106;21.024;2022-11-15T04:36:54;100565.66;;;5.65;72.63
22031;BME280;11179;52.106;21.024;2022-11-15T04:39:41;100588.63;;;5.75;72.56
22031;BME280;11179;52.106;21.024;2022-11-15T04:42:08;100580.69;;;5.74;72.59
22031;BME280;11179;52.106;21.024;2022-11-15T04:44:34;100584.72;;;5.71;72.75
22031;BME280;11179;52.106;21.024;2022-11-15T04:47:00;100589.06;;;5.72;72.75
22031;BME280;11179;52.106;21.024;2022-11-15T04:49:26;100571.56;;;5.62;72.64
22031;BME280;11179;52.106;21.024;2022-11-15T04:51:51;100577.19;;;5.67;72.89
22031;BME280;11179;52.106;21.024;2022-11-15T04:54:17;100576.75;;;5.70;72.71
22031;BME280;11179;52.106;21.024;2022-11-15T04:56:42;100580.69;;;5.74;72.95
22031;BME280;11179;52.106;21.024;2022-11-15T04:59:07;100568.72;;;5.75;73.00
22031;BME280;11179;52.106;21.024;2022-11-15T05:01:33;100571.66;;;5.73;72.77
22031;BME280;11179;52.106;21.024;2022-11-15T05:03:58;100568.09;;;5.73;72.86
22031;BME280;11179;52.106;21.024;2022-11-15T05:06:42;100579.63;;;5.75;72.79
22031;BME280;11179;52.106;21.024;2022-11-15T05:09:08;100566.47;;;5.72;72.98
22031;BME280;11179;52.106;21.024;2022-11-15T05:11:33;100577.91;;;5.80;72.77
22031;BME280;11179;52.106;21.024;2022-11-15T05:13:59;100572.91;;;5.77;72.87
22031;BME280;11179;52.106;21.024;2022-11-15T05:16:24;100564.63;;;5.66;72.70
22031;BME280;11179;52.106;21.024;2022-11-15T05:18:53;100574.03;;;5.70;72.74
22031;BME280;11179;52.106;21.024;2022-11-15T05:21:19;100560.66;;;5.62;73.00
22031;BME280;11179;52.106;21.024;2022-11-15T05:23:45;100564.44;;;5.61;72.87
22031;BME280;11179;52.106;21.024;2022-11-15T05:26:11;100570.47;;;5.69;72.88
22031;BME280;11179;52.106;21.024;2022-11-15T05:28:37;100574.03;;;5.70;72.88
22031;BME280;11179;52.106;21.024;2022-11-15T05:31:14;100570.25;;;5.71;72.90
22031;BME280;11179;52.106;21.024;2022-11-15T05:33:40;100559.59;;;5.63;72.95
22031;BME280;11179;52.106;21.024;2022-11-15T05:38:44;100566.50;;;5.65;72.89
22031;BME280;11179;52.106;21.024;2022-11-15T05:41:10;100571.75;;;5.67;72.74
22031;BME280;11179;52.106;21.024;2022-11-15T05:43:37;100567.34;;;5.66;72.88
22031;BME280;11179;52.106;21.024;2022-11-15T05:46:04;100556.94;;;5.56;72.69
22031;BME280;11179;52.106;21.024;2022-11-15T05:48:31;100569.88;;;5.61;73.09
22031;BME280;11179;52.106;21.024;2022-11-15T05:50:56;100546.09;;;5.49;72.89
22031;BME280;11179;52.106;21.024;2022-11-15T05:53:23;100560.00;;;5.66;72.93
22031;BME280;11179;52.106;21.024;2022-11-15T05:55:49;100554.16;;;5.63;73.32
22031;BME280;11179;52.106;21.024;2022-11-15T05:58:15;100543.47;;;5.61;73.14
22031;BME280;11179;52.106;21.024;2022-11-15T06:00:41;100553.06;;;5.70;73.19
22031;BME280;11179;52.106;21.024;2022-11-15T06:03:08;100538.03;;;5.61;73.23
22031;BME280;11179;52.106;21.024;2022-11-15T06:05:34;100556.84;;;5.69;72.89
22031;BME280;11179;52.106;21.024;2022-11-15T06:07:59;100548.47;;;5.71;73.09
22031;BME280;11179;52.106;21.024;2022-11-15T06:10:25;100532.03;;;5.53;72.89
22031;BME280;11179;52.106;21.024;2022-11-15T06:13:02;100557.69;;;5.70;72.99
22031;BME280;11179;52.106;21.024;2022-11-15T06:15:27;100552.22;;;5.70;72.79
22031;BME280;11179;52.106;21.024;2022-11-15T06:17:56;100558.88;;;5.74;72.85
22031;BME280;11179;52.106;21.024;2022-11-15T06:20:26;100567.66;;;5.76;73.01
22031;BME280;11179;52.106;21.024;2022-11-15T06:22:59;100566.00;;;5.75;72.92
22031;BME280;11179;52.106;21.024;2022-11-15T06:25:26;100565.56;;;5.78;72.76
22031;BME280;11179;52.106;21.024;2022-11-15T06:27:52;100564.72;;;5.77;72.83
22031;BME280;11179;52.106;21.024;2022-11-15T06:30:19;100544.72;;;5.65;73.16
22031;BME280;11179;52.106;21.024;2022-11-15T06:32:44;100568.94;;;5.73;72.78
22031;BME280;11179;52.106;21.024;2022-11-15T06:35:09;100553.09;;;5.64;73.14
22031;BME280;11179;52.106;21.024;2022-11-15T06:37:35;100558.13;;;5.67;73.13
22031;BME280;11179;52.106;21.024;2022-11-15T06:40:00;100567.28;;;5.72;73.14
22031;BME280;11179;52.106;21.024;2022-11-15T06:42:25;100561.69;;;5.67;73.25
22031;BME280;11179;52.106;21.024;2022-11-15T06:44:51;100564.00;;;5.64;72.89
22031;BME280;11179;52.106;21.024;2022-11-15T06:47:16;100570.69;;;5.68;73.02
22031;BME280;11179;52.106;21.024;2022-11-15T06:49:41;100569.00;;;5.67;72.87
22031;BME280;11179;52.106;21.024;2022-11-15T06:52:07;100562.53;;;5.61;73.03
22031;BME280;11179;52.106;21.024;2022-11-15T06:54:32;100569.63;;;5.69;73.09
22031;BME280;11179;52.106;21.024;2022-11-15T06:56:57;100549.75;;;5.62;73.09
22031;BME280;11179;52.106;21.024;2022-11-15T06:59:23;100573.56;;;5.73;72.81
22031;BME280;11179;52.106;21.024;2022-11-15T07:01:49;100577.94;;;5.74;72.88
22031;BME280;11179;52.106;21.024;2022-11-15T07:04:22;100566.84;;;5.75;72.80
22031;BME280;11179;52.106;21.024;2022-11-15T07:06:48;100565.16;;;5.74;73.01
22031;BME280;11179;52.106;21.024;2022-11-15T07:09:13;100558.88;;;5.74;72.90
22031;BME280;11179;52.106;21.024;2022-11-15T07:11:39;100567.06;;;5.74;72.83
22031;BME280;11179;52.106;21.024;2022-11-15T07:14:04;100574.56;;;5.78;72.99
22031;BME280;11179;52.106;21.024;2022-11-15T07:16:30;100577.72;;;5.75;72.97
22031;BME280;11179;52.106;21.024;2022-11-15T07:18:55;100568.94;;;5.73;72.81
22031;BME280;11179;52.106;21.024;2022-11-15T07:21:20;100569.34;;;5.77;72.91
22031;BME280;11179;52.106;21.024;2022-11-15T07:23:46;100550.81;;;5.61;72.79
22031;BME280;11179;52.106;21.024;2022-11-15T07:26:11;100576.91;;;5.75;72.76
22031;BME280;11179;52.106;21.024;2022-11-15T07:28:36;100569.75;;;5.80;72.96
22031;BME280;11179;52.106;21.024;2022-11-15T07:31:06;100563.47;;;5.80;72.82
22031;BME280;11179;52.106;21.024;2022-11-15T07:33:33;100580.56;;;5.87;72.59
22031;BME280;11179;52.106;21.024;2022-11-15T07:36:00;100578.44;;;5.96;72.70
22031;BME280;11179;52.106;21.024;2022-11-15T07:38:27;100571.69;;;5.98;72.49
22031;BME280;11179;52.106;21.024;2022-11-15T07:41:00;100575.25;;;5.99;72.34
22031;BME280;11179;52.106;21.024;2022-11-15T07:43:25;100569.81;;;5.99;72.23
22031;BME280;11179;52.106;21.024;2022-11-15T07:45:53;100576.91;;;6.00;72.29
22031;BME280;11179;52.106;21.024;2022-11-15T07:48:18;100541.97;;;5.90;71.95
22031;BME280;11179;52.106;21.024;2022-11-15T07:50:43;100563.28;;;6.00;72.13
22031;BME280;11179;52.106;21.024;2022-11-15T07:53:09;100555.78;;;5.95;72.10
22031;BME280;11179;52.106;21.024;2022-11-15T07:55:36;100564.72;;;6.02;72.24
22031;BME280;11179;52.106;21.024;2022-11-15T07:58:06;100529.41;;;5.89;72.12
22031;BME280;11179;52.106;21.024;2022-11-15T08:00:33;100552.75;;;6.03;72.13
22031;BME280;11179;52.106;21.024;2022-11-15T08:03:16;100553.59;;;6.04;71.87
22031;BME280;11179;52.106;21.024;2022-11-15T08:05:43;100534.75;;;6.02;72.05
22031;BME280;11179;52.106;21.024;2022-11-15T08:08:10;100538.88;;;6.11;71.58
22031;BME280;11179;52.106;21.024;2022-11-15T08:10:36;100532.94;;;6.14;71.65
22031;BME280;11179;52.106;21.024;2022-11-15T08:13:11;100530.06;;;6.09;71.51
22031;BME280;11179;52.106;21.024;2022-11-15T08:15:37;100518.47;;;6.14;71.58
22031;BME280;11179;52.106;21.024;2022-11-15T08:18:15;100522.50;;;6.11;71.62
22031;BME280;11179;52.106;21.024;2022-11-15T08:20:41;100525.97;;;6.18;71.52
22031;BME280;11179;52.106;21.024;2022-11-15T08:23:07;100512.78;;;6.15;71.41
22031;BME280;11179;52.106;21.024;2022-11-15T08:25:34;100524.47;;;6.22;71.19
22031;BME280;11179;52.106;21.024;2022-11-15T08:28:02;100514.84;;;6.20;71.31
22031;BME280;11179;52.106;21.024;2022-11-15T08:30:28;100523.22;;;6.25;71.16
22031;BME280;11179;52.106;21.024;2022-11-15T08:32:56;100498.94;;;6.17;71.24
22031;BME280;11179;52.106;21.024;2022-11-15T08:35:23;100505.91;;;6.31;71.43
22031;BME280;11179;52.106;21.024;2022-11-15T08:37:48;100501.94;;;6.34;71.07
22031;BME280;11179;52.106;21.024;2022-11-15T08:40:14;100503.16;;;6.38;71.03
22031;BME280;11179;52.106;21.024;2022-11-15T08:42:40;100497.44;;;6.39;70.73
22031;BME280;11179;52.106;21.024;2022-11-15T08:45:06;100487.38;;;6.40;70.90
22031;BME280;11179;52.106;21.024;2022-11-15T08:47:32;100507.84;;;6.49;70.56
22031;BME280;11179;52.106;21.024;2022-11-15T08:49:57;100499.72;;;6.42;70.76
22031;BME280;11179;52.106;21.024;2022-11-15T08:52:23;100482.41;;;6.37;70.59
22031;BME280;11179;52.106;21.024;2022-11-15T08:54:48;100489.03;;;6.41;70.58
22031;BME280;11179;52.106;21.024;2022-11-15T08:57:14;100500.94;;;6.46;70.48
22031;BME280;11179;52.106;21.024;2022-11-15T08:59:40;100507.41;;;6.52;70.79
22031;BME280;11179;52.106;21.024;2022-11-15T09:02:05;100512.38;;;6.55;70.61
22031;BME280;11179;52.106;21.024;2022-11-15T09:04:31;100498.84;;;6.48;70.46
22031;BME280;11179;52.106;21.024;2022-11-15T09:06:56;100501.47;;;6.55;70.50
22031;BME280;11179;52.106;21.024;2022-11-15T09:09:22;100501.84;;;6.58;70.30
22031;BME280;11179;52.106;21.024;2022-11-15T09:11:50;100484.25;;;6.54;70.36
22031;BME280;11179;52.106;21.024;2022-11-15T09:14:16;100456.84;;;6.49;70.34
22031;BME280;11179;52.106;21.024;2022-11-15T09:16:41;100483.63;;;6.71;70.07
22031;BME280;11179;52.106;21.024;2022-11-15T09:19:06;100476.28;;;6.71;70.13
22031;BME280;11179;52.106;21.024;2022-11-15T09:21:32;100479.53;;;6.80;70.26
22031;BME280;11179;52.106;21.024;2022-11-15T09:23:58;100468.25;;;6.76;70.08
22031;BME280;11179;52.106;21.024;2022-11-15T09:26:23;100463.25;;;6.73;69.83
22031;BME280;11179;52.106;21.024;2022-11-15T09:28:48;100460.69;;;6.78;70.03
22031;BME280;11179;52.106;21.024;2022-11-15T09:31:14;100471.88;;;6.88;69.68
22031;BME280;11179;52.106;21.024;2022-11-15T09:33:40;100475.66;;;6.87;69.71
22031;BME280;11179;52.106;21.024;2022-11-15T09:36:09;100467.47;;;6.87;69.82
22031;BME280;11179;52.106;21.024;2022-11-15T09:38:34;100465.34;;;6.89;69.90
22031;BME280;11179;52.106;21.024;2022-11-15T09:44:03;100463.94;;;6.99;69.78
22031;BME280;11179;52.106;21.024;2022-11-15T09:49:22;100439.53;;;7.04;69.35
22031;BME280;11179;52.106;21.024;2022-11-15T09:51:49;100448.28;;;7.06;69.45
22031;BME280;11179;52.106;21.024;2022-11-15T09:54:37;100444.84;;;6.99;69.27
22031;BME280;11179;52.106;21.024;2022-11-15T09:57:33;100441.28;;;6.98;69.26
22031;BME280;11179;52.106;21.024;2022-11-15T10:05:41;100432.28;;;7.09;69.21
22031;BME280;11179;52.106;21.024;2022-11-15T10:10:53;100421.72;;;7.13;69.21
22031;BME280;11179;52.106;21.024;2022-11-15T10:13:26;100423.63;;;7.12;69.26
22031;BME280;11179;52.106;21.024;2022-11-15T10:16:00;100412.00;;;7.05;69.05
22031;BME280;11179;52.106;21.024;2022-11-15T10:21:18;100404.59;;;7.06;69.01
22031;BME280;11179;52.106;21.024;2022-11-15T10:23:44;100412.47;;;7.14;68.73
22031;BME280;11179;52.106;21.024;2022-11-15T10:26:15;100405.19;;;7.08;68.85
22031;BME280;11179;52.106;21.024;2022-11-15T10:28:41;100404.97;;;7.09;68.75
22031;BME280;11179;52.106;21.024;2022-11-15T10:31:22;100403.78;;;7.05;68.61
22031;BME280;11179;52.106;21.024;2022-11-15T10:33:48;100421.13;;;7.11;68.54
22031;BME280;11179;52.106;21.024;2022-11-15T10:41:13;100394.78;;;7.05;68.53
22031;BME280;11179;52.106;21.024;2022-11-15T10:43:38;100404.13;;;7.09;68.57
22031;BME280;11179;52.106;21.024;2022-11-15T10:46:38;100414.50;;;7.18;68.45
22031;BME280;11179;52.106;21.024;2022-11-15T10:49:23;100411.66;;;7.25;68.59
22031;BME280;11179;52.106;21.024;2022-11-15T10:57:13;100383.41;;;7.43;68.32
22031;BME280;11179;52.106;21.024;2022-11-15T10:59:44;100390.63;;;7.49;68.64
22031;BME280;11179;52.106;21.024;2022-11-15T11:02:33;100384.94;;;7.50;68.50
22031;BME280;11179;52.106;21.024;2022-11-15T11:05:00;100381.28;;;7.56;68.18
22031;BME280;11179;52.106;21.024;2022-11-15T11:07:29;100367.47;;;7.51;68.37
22031;BME280;11179;52.106;21.024;2022-11-15T11:12:38;100375.19;;;7.66;68.46
22031;BME280;11179;52.106;21.024;2022-11-15T11:15:11;100364.50;;;7.64;68.22
22031;BME280;11179;52.106;21.024;2022-11-15T11:18:07;100363.56;;;7.71;68.23
22031;BME280;11179;52.106;21.024;2022-11-15T11:20:45;100367.97;;;7.72;68.12
22031;BME280;11179;52.106;21.024;2022-11-15T11:31:20;100367.22;;;7.76;68.22
22031;BME280;11179;52.106;21.024;2022-11-15T11:33:59;100362.13;;;7.80;68.05
22031;BME280;11179;52.106;21.024;2022-11-15T11:42:41;100342.13;;;7.91;68.13
22031;BME280;11179;52.106;21.024;2022-11-15T11:45:19;100344.13;;;7.95;68.18
22031;BME280;11179;52.106;21.024;2022-11-15T11:48:05;100328.56;;;7.96;68.11
22031;BME280;11179;52.106;21.024;2022-11-15T11:50:37;100325.25;;;7.94;67.89
22031;BME280;11179;52.106;21.024;2022-11-15T11:53:11;100315.97;;;7.95;68.03
22031;BME280;11179;52.106;21.024;2022-11-15T11:58:13;100320.59;;;7.94;68.08
22031;BME280;11179;52.106;21.024;2022-11-15T12:00:51;100314.66;;;7.97;67.95
22031;BME280;11179;52.106;21.024;2022-11-15T12:08:49;100305.22;;;8.05;67.76
22031;BME280;11179;52.106;21.024;2022-11-15T12:11:26;100302.59;;;8.10;67.76
22031;BME280;11179;52.106;21.024;2022-11-15T12:13:57;100290.25;;;8.08;67.73
22031;BME280;11179;52.106;21.024;2022-11-15T12:16:27;100300.78;;;8.16;67.68
22031;BME280;11179;52.106;21.024;2022-11-15T12:18:54;100297.69;;;8.12;67.81
22031;BME280;11179;52.106;21.024;2022-11-15T12:24:35;100291.28;;;8.18;67.66
22031;BME280;11179;52.106;21.024;2022-11-15T12:29:40;100294.38;;;8.22;67.29
22031;BME280;11179;52.106;21.024;2022-11-15T12:32:23;100299.38;;;8.25;67.43
22031;BME280;11179;52.106;21.024;2022-11-15T12:34:50;100298.03;;;8.27;67.33
22031;BME280;11179;52.106;21.024;2022-11-15T12:37:46;100300.75;;;8.27;67.43
22031;BME280;11179;52.106;21.024;2022-11-15T12:40:20;100292.25;;;8.24;67.47
22031;BME280;11179;52.106;21.024;2022-11-15T12:45:35;100273.34;;;8.22;67.26
22031;BME280;11179;52.106;21.024;2022-11-15T13:06:46;100261.88;;;8.25;66.90
22031;BME280;11179;52.106;21.024;2022-11-15T13:12:10;100257.00;;;8.27;67.29
22031;BME280;11179;52.106;21.024;2022-11-15T13:14:53;100254.50;;;8.26;67.15
22031;BME280;11179;52.106;21.024;2022-11-15T13:19:57;100262.38;;;8.22;66.84
22031;BME280;11179;52.106;21.024;2022-11-15T13:22:24;100257.66;;;8.06;66.96
22031;BME280;11179;52.106;21.024;2022-11-15T13:25:27;100258.94;;;8.15;67.22
22031;BME280;11179;52.106;21.024;2022-11-15T13:28:00;100248.22;;;8.14;67.17
22031;BME280;11179;52.106;21.024;2022-11-15T13:30:28;100253.22;;;8.17;67.09
22031;BME280;11179;52.106;21.024;2022-11-15T13:32:55;100253.47;;;8.15;66.90
22031;BME280;11179;52.106;21.024;2022-11-15T13:35:25;100243.59;;;8.14;67.10
22031;BME280;11179;52.106;21.024;2022-11-15T13:37:53;100243.16;;;8.06;67.07
22031;BME280;11179;52.106;21.024;2022-11-15T13:40:34;100240.91;;;8.02;67.37
22031;BME280;11179;52.106;21.024;2022-11-15T13:46:14;100227.00;;;8.04;66.97
22031;BME280;11179;52.106;21.024;2022-11-15T13:48:41;100225.09;;;8.05;66.83
22031;BME280;11179;52.106;21.024;2022-11-15T13:51:44;100227.00;;;8.04;66.70
22031;BME280;11179;52.106;21.024;2022-11-15T13:56:44;100219.88;;;8.03;67.09
22031;BME280;11179;52.106;21.024;2022-11-15T13:59:17;100219.22;;;7.96;66.84
22031;BME280;11179;52.106;21.024;2022-11-15T14:01:43;100215.34;;;7.80;66.96
22031;BME280;11179;52.106;21.024;2022-11-15T14:04:12;100220.28;;;7.67;67.36
22031;BME280;11179;52.106;21.024;2022-11-15T14:06:45;100222.88;;;7.61;67.33
22031;BME280;11179;52.106;21.024;2022-11-15T14:11:54;100228.34;;;7.61;67.67
22031;BME280;11179;52.106;21.024;2022-11-15T14:14:22;100230.50;;;7.59;67.49
22031;BME280;11179;52.106;21.024;2022-11-15T14:16:53;100209.13;;;7.56;67.75
22031;BME280;11179;52.106;21.024;2022-11-15T14:22:23;100217.72;;;7.77;67.41
22031;BME280;11179;52.106;21.024;2022-11-15T14:25:18;100208.47;;;7.78;67.37
22031;BME280;11179;52.106;21.024;2022-11-15T14:28:13;100212.38;;;7.82;67.39
22031;BME280;11179;52.106;21.024;2022-11-15T14:30:40;100212.84;;;7.79;67.31
22031;BME280;11179;52.106;21.024;2022-11-15T14:33:22;100213.19;;;7.82;67.13
22031;BME280;11179;52.106;21.024;2022-11-15T14:35:48;100199.91;;;7.74;67.32
22031;BME280;11179;52.106;21.024;2022-11-15T14:38:14;100209.78;;;7.75;67.24
22031;BME280;11179;52.106;21.024;2022-11-15T14:40:40;100200.06;;;7.68;67.36
22031;BME280;11179;52.106;21.024;2022-11-15T14:43:08;100211.44;;;7.76;67.29
22031;BME280;11179;52.106;21.024;2022-11-15T14:45:35;100200.41;;;7.71;67.44
22031;BME280;11179;52.106;21.024;2022-11-15T14:48:00;100215.16;;;7.70;67.23
22031;BME280;11179;52.106;21.024;2022-11-15T14:50:25;100207.44;;;7.67;67.47
22031;BME280;11179;52.106;21.024;2022-11-15T14:52:53;100211.97;;;7.61;67.17
22031;BME280;11179;52.106;21.024;2022-11-15T14:55:27;100207.66;;;7.65;67.18
22031;BME280;11179;52.106;21.024;2022-11-15T14:57:54;100218.13;;;7.69;67.12
22031;BME280;11179;52.106;21.024;2022-11-15T15:00:20;100209.69;;;7.70;67.15
22031;BME280;11179;52.106;21.024;2022-11-15T15:02:46;100210.16;;;7.67;67.19
22031;BME280;11179;52.106;21.024;2022-11-15T15:08:00;100204.91;;;7.37;67.49
22031;BME280;11179;52.106;21.024;2022-11-15T15:10:38;100205.88;;;7.31;67.45
22031;BME280;11179;52.106;21.024;2022-11-15T15:13:04;100199.81;;;7.29;67.67
22031;BME280;11179;52.106;21.024;2022-11-15T15:15:36;100184.97;;;7.25;67.50
22031;BME280;11179;52.106;21.024;2022-11-15T15:18:02;100197.09;;;7.29;67.69
22031;BME280;11179;52.106;21.024;2022-11-15T15:20:29;100198.59;;;7.37;67.68